sensor_id;sensor_type;location;lat;lon;timestamp;temperature;humidity
8662;DHT22;29684;47.722;9.388;2023-06-22T00:00:06;22.00;99.90
8662;DHT22;29684;47.722;9.388;2023-06-22T00:02:55;21.80;99.90
8662;DHT22;29684;47.722;9.388;2023-06-22T00:05:39;21.60;99.90
8662;DHT22;29684;47.722;9.388;2023-06-22T00:08:23;21.60;99.90
8662;DHT22;29684;47.722;9.388;2023-06-22T00:11:07;21.70;99.90
8662;DHT22;29684;47.722;9.388;2023-06-22T00:13:52;21.70;99.90
8662;DHT22;29684;47.722;9.388;2023-06-22T00:16:36;21.70;99.90
8662;DHT22;29684;47.722;9.388;2023-06-22T00:19:21;21.80;99.90
8662;DHT22;29684;47.722;9.388;2023-06-22T00:22:05;22.00;99.90
8662;DHT22;29684;47.722;9.388;2023-06-22T00:24:49;22.20;99.90
8662;DHT22;29684;47.722;9.388;2023-06-22T00:27:34;22.70;99.90
8662;DHT22;29684;47.722;9.388;2023-06-22T00:30:19;21.90;99.90
8662;DHT22;29684;47.722;9.388;2023-06-22T00:33:03;21.80;99.90
8662;DHT22;29684;47.722;9.388;2023-06-22T00:35:47;21.70;99.90
8662;DHT22;29684;47.722;9.388;2023-06-22T00:38:31;21.60;99.90
8662;DHT22;29684;47.722;9.388;2023-06-22T00:41:16;21.60;99.90
8662;DHT22;29684;47.722;9.388;2023-06-22T00:44:01;21.80;99.90
8662;DHT22;29684;47.722;9.388;2023-06-22T00:46:45;21.70;99.90
8662;DHT22;29684;47.722;9.388;2023-06-22T00:49:30;21.70;99.90
8662;DHT22;29684;47.722;9.388;2023-06-22T00:52:14;21.70;99.90
8662;DHT22;29684;47.722;9.388;2023-06-22T00:55:04;21.70;99.90
8662;DHT22;29684;47.722;9.388;2023-06-22T00:57:51;21.70;99.90
8662;DHT22;29684;47.722;9.388;2023-06-22T01:00:40;21.50;99.90
8662;DHT22;29684;47.722;9.388;2023-06-22T01:03:25;21.30;99.90
8662;DHT22;29684;47.722;9.388;2023-06-22T01:06:16;21.40;99.90
8662;DHT22;29684;47.722;9.388;2023-06-22T01:09:15;21.20;99.90
8662;DHT22;29684;47.722;9.388;2023-06-22T01:12:02;21.10;99.90
8662;DHT22;29684;47.722;9.388;2023-06-22T01:14:55;21.10;99.90
8662;DHT22;29684;47.722;9.388;2023-06-22T01:17:43;21.00;99.90
8662;DHT22;29684;47.722;9.388;2023-06-22T01:20:29;21.00;99.90
8662;DHT22;29684;47.722;9.388;2023-06-22T01:29:04;20.80;99.90
8662;DHT22;29684;47.722;9.388;2023-06-22T01:31:50;20.70;99.90
8662;DHT22;29684;47.722;9.388;2023-06-22T01:34:35;20.60;99.90
8662;DHT22;29684;47.722;9.388;2023-06-22T01:37:21;20.60;99.90
8662;DHT22;29684;47.722;9.388;2023-06-22T01:40:08;20.50;99.90
8662;DHT22;29684;47.722;9.388;2023-06-22T01:42:53;20.50;99.90
8662;DHT22;29684;47.722;9.388;2023-06-22T01:45:38;20.40;99.90
8662;DHT22;29684;47.722;9.388;2023-06-22T01:48:22;20.40;99.90
8662;DHT22;29684;47.722;9.388;2023-06-22T01:51:06;20.30;99.90
8662;DHT22;29684;47.722;9.388;2023-06-22T01:53:51;20.30;99.90
8662;DHT22;29684;47.722;9.388;2023-06-22T01:56:35;20.30;99.90
8662;DHT22;29684;47.722;9.388;2023-06-22T01:59:34;20.20;99.90
8662;DHT22;29684;47.722;9.388;2023-06-22T02:02:20;20.00;99.90
8662;DHT22;29684;47.722;9.388;2023-06-22T02:05:12;19.90;99.90
8662;DHT22;29684;47.722;9.388;2023-06-22T02:08:15;19.90;99.90
8662;DHT22;29684;47.722;9.388;2023-06-22T02:11:02;19.90;99.90
8662;DHT22;29684;47.722;9.388;2023-06-22T02:13:47;19.80;99.90
8662;DHT22;29684;47.722;9.388;2023-06-22T02:16:32;19.80;99.90
8662;DHT22;29684;47.722;9.388;2023-06-22T02:19:17;19.90;99.90
8662;DHT22;29684;47.722;9.388;2023-06-22T02:22:06;19.80;99.90
8662;DHT22;29684;47.722;9.388;2023-06-22T02:24:50;19.80;99.90
8662;DHT22;29684;47.722;9.388;2023-06-22T02:27:34;19.70;99.90
8662;DHT22;29684;47.722;9.388;2023-06-22T02:30:18;19.70;99.90
8662;DHT22;29684;47.722;9.388;2023-06-22T02:33:02;19.80;99.90
8662;DHT22;29684;47.722;9.388;2023-06-22T02:35:46;19.80;99.90
8662;DHT22;29684;47.722;9.388;2023-06-22T02:38:32;19.80;99.90
8662;DHT22;29684;47.722;9.388;2023-06-22T02:41:20;19.80;99.90
8662;DHT22;29684;47.722;9.388;2023-06-22T02:44:04;19.70;99.90
8662;DHT22;29684;47.722;9.388;2023-06-22T02:46:48;19.60;99.90
8662;DHT22;29684;47.722;9.388;2023-06-22T02:49:32;19.50;99.90
8662;DHT22;29684;47.722;9.388;2023-06-22T02:52:17;19.50;99.90
8662;DHT22;29684;47.722;9.388;2023-06-22T02:55:01;19.40;99.90
8662;DHT22;29684;47.722;9.388;2023-06-22T02:57:45;19.50;99.90
8662;DHT22;29684;47.722;9.388;2023-06-22T03:00:31;19.60;99.90
8662;DHT22;29684;47.722;9.388;2023-06-22T03:03:15;19.50;99.90
8662;DHT22;29684;47.722;9.388;2023-06-22T03:05:59;19.50;99.90
8662;DHT22;29684;47.722;9.388;2023-06-22T03:08:44;19.50;99.90
8662;DHT22;29684;47.722;9.388;2023-06-22T03:11:29;19.50;99.90
8662;DHT22;29684;47.722;9.388;2023-06-22T03:14:13;19.40;99.90
8662;DHT22;29684;47.722;9.388;2023-06-22T03:16:57;19.40;99.90
8662;DHT22;29684;47.722;9.388;2023-06-22T03:19:47;19.40;99.90
8662;DHT22;29684;47.722;9.388;2023-06-22T03:22:31;19.40;99.90
8662;DHT22;29684;47.722;9.388;2023-06-22T03:25:15;19.50;99.90
8662;DHT22;29684;47.722;9.388;2023-06-22T03:27:59;19.50;99.90
8662;DHT22;29684;47.722;9.388;2023-06-22T03:30:44;19.50;99.90
8662;DHT22;29684;47.722;9.388;2023-06-22T03:33:28;19.40;99.90
8662;DHT22;29684;47.722;9.388;2023-06-22T03:36:12;19.50;99.90
8662;DHT22;29684;47.722;9.388;2023-06-22T03:38:56;19.50;99.90
8662;DHT22;29684;47.722;9.388;2023-06-22T03:41:40;19.50;99.90
8662;DHT22;29684;47.722;9.388;2023-06-22T03:44:24;19.60;99.90
8662;DHT22;29684;47.722;9.388;2023-06-22T03:47:08;19.50;99.90
8662;DHT22;29684;47.722;9.388;2023-06-22T03:49:53;19.40;99.90
8662;DHT22;29684;47.722;9.388;2023-06-22T03:52:39;19.60;99.90
8662;DHT22;29684;47.722;9.388;2023-06-22T03:55:24;19.60;99.90
8662;DHT22;29684;47.722;9.388;2023-06-22T03:58:08;19.50;99.90
8662;DHT22;29684;47.722;9.388;2023-06-22T04:00:53;19.50;99.90
8662;DHT22;29684;47.722;9.388;2023-06-22T04:03:38;19.60;99.90
8662;DHT22;29684;47.722;9.388;2023-06-22T04:06:23;19.40;99.90
8662;DHT22;29684;47.722;9.388;2023-06-22T04:09:07;19.50;99.90
8662;DHT22;29684;47.722;9.388;2023-06-22T04:11:51;19.50;99.90
8662;DHT22;29684;47.722;9.388;2023-06-22T04:14:36;19.50;99.90
8662;DHT22;29684;47.722;9.388;2023-06-22T04:17:20;19.60;99.90
8662;DHT22;29684;47.722;9.388;2023-06-22T04:20:04;19.50;99.90
8662;DHT22;29684;47.722;9.388;2023-06-22T04:22:49;19.40;99.90
8662;DHT22;29684;47.722;9.388;2023-06-22T04:25:33;19.60;99.90
8662;DHT22;29684;47.722;9.388;2023-06-22T04:28:17;19.60;99.90
8662;DHT22;29684;47.722;9.388;2023-06-22T04:31:02;19.60;99.90
8662;DHT22;29684;47.722;9.388;2023-06-22T04:33:46;19.70;99.90
8662;DHT22;29684;47.722;9.388;2023-06-22T04:36:37;19.70;99.90
8662;DHT22;29684;47.722;9.388;2023-06-22T04:39:22;19.80;99.90
8662;DHT22;29684;47.722;9.388;2023-06-22T04:42:07;19.90;99.90
8662;DHT22;29684;47.722;9.388;2023-06-22T04:44:51;20.20;99.90
8662;DHT22;29684;47.722;9.388;2023-06-22T04:47:35;20.40;99.90
8662;DHT22;29684;47.722;9.388;2023-06-22T04:50:23;20.60;99.90
8662;DHT22;29684;47.722;9.388;2023-06-22T04:53:08;20.50;99.90
8662;DHT22;29684;47.722;9.388;2023-06-22T04:55:53;20.40;99.90
8662;DHT22;29684;47.722;9.388;2023-06-22T04:58:37;20.60;99.90
8662;DHT22;29684;47.722;9.388;2023-06-22T05:01:22;20.50;99.90
8662;DHT22;29684;47.722;9.388;2023-06-22T05:04:07;20.50;99.90
8662;DHT22;29684;47.722;9.388;2023-06-22T05:06:52;20.70;99.90
8662;DHT22;29684;47.722;9.388;2023-06-22T05:09:36;20.60;99.90
8662;DHT22;29684;47.722;9.388;2023-06-22T05:12:20;20.50;99.90
8662;DHT22;29684;47.722;9.388;2023-06-22T05:15:06;20.40;99.90
8662;DHT22;29684;47.722;9.388;2023-06-22T05:17:50;20.40;99.90
8662;DHT22;29684;47.722;9.388;2023-06-22T05:20:35;20.70;99.90
8662;DHT22;29684;47.722;9.388;2023-06-22T05:23:19;20.90;99.90
8662;DHT22;29684;47.722;9.388;2023-06-22T05:26:03;21.40;99.90
8662;DHT22;29684;47.722;9.388;2023-06-22T05:28:47;21.00;99.90
8662;DHT22;29684;47.722;9.388;2023-06-22T05:31:32;21.00;99.90
8662;DHT22;29684;47.722;9.388;2023-06-22T05:34:16;21.10;99.90
8662;DHT22;29684;47.722;9.388;2023-06-22T05:37:00;21.30;99.90
8662;DHT22;29684;47.722;9.388;2023-06-22T05:39:45;21.40;99.90
8662;DHT22;29684;47.722;9.388;2023-06-22T05:42:29;21.30;99.90
8662;DHT22;29684;47.722;9.388;2023-06-22T05:45:14;21.30;99.90
8662;DHT22;29684;47.722;9.388;2023-06-22T05:47:58;21.30;99.90
8662;DHT22;29684;47.722;9.388;2023-06-22T05:50:42;21.50;99.90
8662;DHT22;29684;47.722;9.388;2023-06-22T05:53:26;21.70;99.90
8662;DHT22;29684;47.722;9.388;2023-06-22T05:56:11;21.60;99.90
8662;DHT22;29684;47.722;9.388;2023-06-22T05:58:55;21.70;99.90
8662;DHT22;29684;47.722;9.388;2023-06-22T06:01:39;21.70;99.90
8662;DHT22;29684;47.722;9.388;2023-06-22T06:04:24;21.80;99.90
8662;DHT22;29684;47.722;9.388;2023-06-22T06:07:08;22.00;99.90
8662;DHT22;29684;47.722;9.388;2023-06-22T06:09:52;22.20;99.90
8662;DHT22;29684;47.722;9.388;2023-06-22T06:12:37;22.20;99.90
8662;DHT22;29684;47.722;9.388;2023-06-22T06:15:21;22.20;99.90
8662;DHT22;29684;47.722;9.388;2023-06-22T06:18:06;22.30;99.90
8662;DHT22;29684;47.722;9.388;2023-06-22T06:20:50;22.20;99.90
8662;DHT22;29684;47.722;9.388;2023-06-22T06:23:34;22.30;99.90
8662;DHT22;29684;47.722;9.388;2023-06-22T06:26:18;22.30;99.90
8662;DHT22;29684;47.722;9.388;2023-06-22T06:29:11;22.40;99.90
8662;DHT22;29684;47.722;9.388;2023-06-22T06:31:55;22.50;99.90
8662;DHT22;29684;47.722;9.388;2023-06-22T06:34:41;22.30;99.90
8662;DHT22;29684;47.722;9.388;2023-06-22T06:37:25;22.30;99.90
8662;DHT22;29684;47.722;9.388;2023-06-22T06:40:10;22.50;99.90
8662;DHT22;29684;47.722;9.388;2023-06-22T06:42:55;22.70;99.90
8662;DHT22;29684;47.722;9.388;2023-06-22T06:45:39;22.90;99.90
8662;DHT22;29684;47.722;9.388;2023-06-22T06:48:23;23.00;99.90
8662;DHT22;29684;47.722;9.388;2023-06-22T06:51:07;23.00;99.90
8662;DHT22;29684;47.722;9.388;2023-06-22T06:53:54;22.90;99.90
8662;DHT22;29684;47.722;9.388;2023-06-22T06:56:38;22.80;99.90
8662;DHT22;29684;47.722;9.388;2023-06-22T06:59:23;23.00;99.90
8662;DHT22;29684;47.722;9.388;2023-06-22T07:02:07;23.30;99.90
8662;DHT22;29684;47.722;9.388;2023-06-22T07:04:51;23.40;99.90
8662;DHT22;29684;47.722;9.388;2023-06-22T07:07:35;23.20;99.90
8662;DHT22;29684;47.722;9.388;2023-06-22T07:10:19;23.40;99.90
8662;DHT22;29684;47.722;9.388;2023-06-22T07:13:03;23.60;99.90
8662;DHT22;29684;47.722;9.388;2023-06-22T07:15:47;23.50;99.90
8662;DHT22;29684;47.722;9.388;2023-06-22T07:18:32;23.40;99.90
8662;DHT22;29684;47.722;9.388;2023-06-22T07:21:16;23.50;99.90
8662;DHT22;29684;47.722;9.388;2023-06-22T07:24:00;23.60;99.90
8662;DHT22;29684;47.722;9.388;2023-06-22T07:26:44;23.60;99.90
8662;DHT22;29684;47.722;9.388;2023-06-22T07:29:30;23.60;99.90
8662;DHT22;29684;47.722;9.388;2023-06-22T07:32:16;23.90;99.90
8662;DHT22;29684;47.722;9.388;2023-06-22T07:35:00;23.90;99.90
8662;DHT22;29684;47.722;9.388;2023-06-22T07:37:45;23.70;99.90
8662;DHT22;29684;47.722;9.388;2023-06-22T07:40:29;24.00;99.90
8662;DHT22;29684;47.722;9.388;2023-06-22T07:43:14;24.30;99.90
8662;DHT22;29684;47.722;9.388;2023-06-22T07:45:58;24.50;99.90
8662;DHT22;29684;47.722;9.388;2023-06-22T07:48:42;24.40;99.90
8662;DHT22;29684;47.722;9.388;2023-06-22T07:51:27;24.20;99.90
8662;DHT22;29684;47.722;9.388;2023-06-22T07:54:11;24.20;99.90
8662;DHT22;29684;47.722;9.388;2023-06-22T07:56:55;24.10;99.90
8662;DHT22;29684;47.722;9.388;2023-06-22T07:59:39;24.40;99.90
8662;DHT22;29684;47.722;9.388;2023-06-22T08:02:23;24.70;99.90
8662;DHT22;29684;47.722;9.388;2023-06-22T08:05:09;25.00;99.90
8662;DHT22;29684;47.722;9.388;2023-06-22T08:07:53;25.40;99.90
8662;DHT22;29684;47.722;9.388;2023-06-22T08:10:39;25.60;99.90
8662;DHT22;29684;47.722;9.388;2023-06-22T08:13:23;26.00;99.90
8662;DHT22;29684;47.722;9.388;2023-06-22T08:16:07;25.80;99.90
8662;DHT22;29684;47.722;9.388;2023-06-22T08:18:51;26.00;99.90
8662;DHT22;29684;47.722;9.388;2023-06-22T08:21:35;26.30;99.90
8662;DHT22;29684;47.722;9.388;2023-06-22T08:24:20;26.50;99.90
8662;DHT22;29684;47.722;9.388;2023-06-22T08:27:07;25.90;99.90
8662;DHT22;29684;47.722;9.388;2023-06-22T08:29:53;25.70;99.90
8662;DHT22;29684;47.722;9.388;2023-06-22T08:32:42;25.50;99.90
8662;DHT22;29684;47.722;9.388;2023-06-22T08:35:26;25.40;99.90
8662;DHT22;29684;47.722;9.388;2023-06-22T08:38:10;25.00;99.90
8662;DHT22;29684;47.722;9.388;2023-06-22T08:40:54;25.00;99.90
8662;DHT22;29684;47.722;9.388;2023-06-22T08:43:38;24.80;99.90
8662;DHT22;29684;47.722;9.388;2023-06-22T08:46:23;24.60;99.90
8662;DHT22;29684;47.722;9.388;2023-06-22T08:49:13;24.40;99.90
8662;DHT22;29684;47.722;9.388;2023-06-22T08:51:58;24.60;99.90
8662;DHT22;29684;47.722;9.388;2023-06-22T08:54:42;24.50;99.90
8662;DHT22;29684;47.722;9.388;2023-06-22T08:57:27;24.40;99.90
8662;DHT22;29684;47.722;9.388;2023-06-22T09:00:12;24.20;99.90
8662;DHT22;29684;47.722;9.388;2023-06-22T09:03:04;24.20;99.90
8662;DHT22;29684;47.722;9.388;2023-06-22T09:05:48;24.40;99.90
8662;DHT22;29684;47.722;9.388;2023-06-22T09:08:33;24.70;99.90
8662;DHT22;29684;47.722;9.388;2023-06-22T09:11:17;25.00;99.90
8662;DHT22;29684;47.722;9.388;2023-06-22T09:14:01;25.30;99.90
8662;DHT22;29684;47.722;9.388;2023-06-22T09:16:45;25.30;99.90
8662;DHT22;29684;47.722;9.388;2023-06-22T09:19:29;25.20;99.90
8662;DHT22;29684;47.722;9.388;2023-06-22T09:22:14;25.40;99.90
8662;DHT22;29684;47.722;9.388;2023-06-22T09:24:58;25.40;99.90
8662;DHT22;29684;47.722;9.388;2023-06-22T09:27:44;25.40;99.90
8662;DHT22;29684;47.722;9.388;2023-06-22T09:30:28;25.70;99.90
8662;DHT22;29684;47.722;9.388;2023-06-22T09:33:12;25.50;99.90
8662;DHT22;29684;47.722;9.388;2023-06-22T09:35:56;25.70;99.90
8662;DHT22;29684;47.722;9.388;2023-06-22T09:38:40;26.00;99.90
8662;DHT22;29684;47.722;9.388;2023-06-22T09:41:24;26.00;99.90
8662;DHT22;29684;47.722;9.388;2023-06-22T09:44:08;26.00;99.90
8662;DHT22;29684;47.722;9.388;2023-06-22T09:46:52;26.20;99.90
8662;DHT22;29684;47.722;9.388;2023-06-22T09:49:36;26.50;99.90
8662;DHT22;29684;47.722;9.388;2023-06-22T09:52:23;26.90;99.90
8662;DHT22;29684;47.722;9.388;2023-06-22T09:55:08;26.80;99.90
8662;DHT22;29684;47.722;9.388;2023-06-22T09:57:53;27.00;99.90
8662;DHT22;29684;47.722;9.388;2023-06-22T10:00:38;26.80;99.90
8662;DHT22;29684;47.722;9.388;2023-06-22T10:03:22;27.10;99.90
8662;DHT22;29684;47.722;9.388;2023-06-22T10:06:06;27.40;99.90
8662;DHT22;29684;47.722;9.388;2023-06-22T10:08:51;27.40;99.90
8662;DHT22;29684;47.722;9.388;2023-06-22T10:11:35;27.00;99.90
8662;DHT22;29684;47.722;9.388;2023-06-22T10:14:21;27.10;99.90
8662;DHT22;29684;47.722;9.388;2023-06-22T10:17:05;27.00;99.90
8662;DHT22;29684;47.722;9.388;2023-06-22T10:19:51;27.20;99.90
8662;DHT22;29684;47.722;9.388;2023-06-22T10:22:35;27.40;99.90
8662;DHT22;29684;47.722;9.388;2023-06-22T10:25:19;27.60;99.90
8662;DHT22;29684;47.722;9.388;2023-06-22T10:28:03;27.90;99.90
8662;DHT22;29684;47.722;9.388;2023-06-22T10:30:48;28.10;99.90
8662;DHT22;29684;47.722;9.388;2023-06-22T10:33:32;28.20;99.90
8662;DHT22;29684;47.722;9.388;2023-06-22T10:36:16;27.90;99.90
8662;DHT22;29684;47.722;9.388;2023-06-22T10:39:00;28.00;99.90
8662;DHT22;29684;47.722;9.388;2023-06-22T10:41:46;28.00;99.90
8662;DHT22;29684;47.722;9.388;2023-06-22T10:44:30;28.30;99.90
8662;DHT22;29684;47.722;9.388;2023-06-22T10:47:14;28.60;99.90
8662;DHT22;29684;47.722;9.388;2023-06-22T10:49:59;28.90;99.90
8662;DHT22;29684;47.722;9.388;2023-06-22T10:52:43;28.80;99.90
8662;DHT22;29684;47.722;9.388;2023-06-22T10:55:30;28.80;99.90
8662;DHT22;29684;47.722;9.388;2023-06-22T10:58:14;28.90;99.90
8662;DHT22;29684;47.722;9.388;2023-06-22T11:00:58;29.10;99.90
8662;DHT22;29684;47.722;9.388;2023-06-22T11:03:43;29.10;99.90
8662;DHT22;29684;47.722;9.388;2023-06-22T11:06:27;29.10;99.90
8662;DHT22;29684;47.722;9.388;2023-06-22T11:09:11;29.20;99.90
8662;DHT22;29684;47.722;9.388;2023-06-22T11:11:55;29.60;99.90
8662;DHT22;29684;47.722;9.388;2023-06-22T11:14:40;29.80;99.90
8662;DHT22;29684;47.722;9.388;2023-06-22T11:17:24;29.80;99.90
8662;DHT22;29684;47.722;9.388;2023-06-22T11:20:08;29.80;99.90
8662;DHT22;29684;47.722;9.388;2023-06-22T11:22:54;29.50;99.90
8662;DHT22;29684;47.722;9.388;2023-06-22T11:25:40;29.20;99.90
8662;DHT22;29684;47.722;9.388;2023-06-22T11:28:27;29.10;99.90
8662;DHT22;29684;47.722;9.388;2023-06-22T11:31:11;28.90;99.90
8662;DHT22;29684;47.722;9.388;2023-06-22T11:33:55;29.10;99.90
8662;DHT22;29684;47.722;9.388;2023-06-22T11:36:39;29.20;99.90
8662;DHT22;29684;47.722;9.388;2023-06-22T11:39:23;29.30;99.90
8662;DHT22;29684;47.722;9.388;2023-06-22T11:42:07;29.30;99.90
8662;DHT22;29684;47.722;9.388;2023-06-22T11:44:52;29.20;99.90
8662;DHT22;29684;47.722;9.388;2023-06-22T11:47:36;29.20;99.90
8662;DHT22;29684;47.722;9.388;2023-06-22T11:50:21;29.40;99.90
8662;DHT22;29684;47.722;9.388;2023-06-22T11:53:05;29.40;99.90
8662;DHT22;29684;47.722;9.388;2023-06-22T11:55:49;29.40;99.90
8662;DHT22;29684;47.722;9.388;2023-06-22T11:58:33;29.00;99.90
8662;DHT22;29684;47.722;9.388;2023-06-22T12:01:17;28.90;99.90
8662;DHT22;29684;47.722;9.388;2023-06-22T12:04:01;28.90;99.90
8662;DHT22;29684;47.722;9.388;2023-06-22T12:06:49;28.90;99.90
8662;DHT22;29684;47.722;9.388;2023-06-22T12:09:33;29.00;99.90
8662;DHT22;29684;47.722;9.388;2023-06-22T12:12:17;29.30;99.90
8662;DHT22;29684;47.722;9.388;2023-06-22T12:15:01;29.50;99.90
8662;DHT22;29684;47.722;9.388;2023-06-22T12:17:47;29.60;99.90
8662;DHT22;29684;47.722;9.388;2023-06-22T12:20:32;29.80;99.90
8662;DHT22;29684;47.722;9.388;2023-06-22T12:23:16;29.90;99.90
8662;DHT22;29684;47.722;9.388;2023-06-22T12:26:00;29.80;99.90
8662;DHT22;29684;47.722;9.388;2023-06-22T12:28:45;30.20;99.90
8662;DHT22;29684;47.722;9.388;2023-06-22T12:31:29;29.90;99.90
8662;DHT22;29684;47.722;9.388;2023-06-22T12:34:13;29.80;99.90
8662;DHT22;29684;47.722;9.388;2023-06-22T12:36:57;30.20;99.90
8662;DHT22;29684;47.722;9.388;2023-06-22T12:39:41;30.20;99.90
8662;DHT22;29684;47.722;9.388;2023-06-22T12:42:25;30.10;99.90
8662;DHT22;29684;47.722;9.388;2023-06-22T12:45:11;30.10;99.90
8662;DHT22;29684;47.722;9.388;2023-06-22T12:47:56;30.20;99.90
8662;DHT22;29684;47.722;9.388;2023-06-22T12:50:40;30.00;99.90
8662;DHT22;29684;47.722;9.388;2023-06-22T12:53:24;29.80;99.90
8662;DHT22;29684;47.722;9.388;2023-06-22T12:56:11;29.90;99.90
8662;DHT22;29684;47.722;9.388;2023-06-22T12:58:55;29.70;99.90
8662;DHT22;29684;47.722;9.388;2023-06-22T13:01:39;29.80;99.90
8662;DHT22;29684;47.722;9.388;2023-06-22T13:04:23;29.90;99.90
8662;DHT22;29684;47.722;9.388;2023-06-22T13:07:07;29.90;99.90
8662;DHT22;29684;47.722;9.388;2023-06-22T13:09:51;29.90;99.90
8662;DHT22;29684;47.722;9.388;2023-06-22T13:12:35;29.90;99.90
8662;DHT22;29684;47.722;9.388;2023-06-22T13:15:19;29.40;99.90
8662;DHT22;29684;47.722;9.388;2023-06-22T13:18:03;29.70;99.90
8662;DHT22;29684;47.722;9.388;2023-06-22T13:20:47;31.00;99.90
8662;DHT22;29684;47.722;9.388;2023-06-22T13:23:31;30.80;99.90
8662;DHT22;29684;47.722;9.388;2023-06-22T13:26:15;30.60;99.90
8662;DHT22;29684;47.722;9.388;2023-06-22T13:28:59;31.10;99.90
8662;DHT22;29684;47.722;9.388;2023-06-22T13:31:43;31.70;99.90
8662;DHT22;29684;47.722;9.388;2023-06-22T13:34:27;32.10;99.90
8662;DHT22;29684;47.722;9.388;2023-06-22T13:37:11;33.00;99.90
8662;DHT22;29684;47.722;9.388;2023-06-22T13:39:55;32.90;99.90
8662;DHT22;29684;47.722;9.388;2023-06-22T13:42:40;32.50;99.90
8662;DHT22;29684;47.722;9.388;2023-06-22T13:45:24;32.00;99.90
8662;DHT22;29684;47.722;9.388;2023-06-22T13:48:08;32.50;99.90
8662;DHT22;29684;47.722;9.388;2023-06-22T13:50:53;32.60;99.90
8662;DHT22;29684;47.722;9.388;2023-06-22T13:53:37;32.80;99.90
8662;DHT22;29684;47.722;9.388;2023-06-22T13:56:21;32.60;99.90
8662;DHT22;29684;47.722;9.388;2023-06-22T13:59:05;32.30;99.90
8662;DHT22;29684;47.722;9.388;2023-06-22T14:01:53;32.20;99.90
8662;DHT22;29684;47.722;9.388;2023-06-22T14:04:38;32.30;99.90
8662;DHT22;29684;47.722;9.388;2023-06-22T14:07:22;32.80;99.90
8662;DHT22;29684;47.722;9.388;2023-06-22T14:10:08;32.10;99.90
8662;DHT22;29684;47.722;9.388;2023-06-22T14:12:52;31.60;99.90
8662;DHT22;29684;47.722;9.388;2023-06-22T14:15:37;31.10;99.90
8662;DHT22;29684;47.722;9.388;2023-06-22T14:18:21;30.70;99.90
8662;DHT22;29684;47.722;9.388;2023-06-22T14:21:08;30.50;99.90
8662;DHT22;29684;47.722;9.388;2023-06-22T14:23:52;30.40;99.90
8662;DHT22;29684;47.722;9.388;2023-06-22T14:26:36;30.30;99.90
8662;DHT22;29684;47.722;9.388;2023-06-22T14:29:21;30.30;99.90
8662;DHT22;29684;47.722;9.388;2023-06-22T14:32:07;30.10;99.90
8662;DHT22;29684;47.722;9.388;2023-06-22T14:34:51;30.20;99.90
8662;DHT22;29684;47.722;9.388;2023-06-22T14:37:35;30.90;99.90
8662;DHT22;29684;47.722;9.388;2023-06-22T14:40:19;30.70;99.90
8662;DHT22;29684;47.722;9.388;2023-06-22T14:43:03;30.70;99.90
8662;DHT22;29684;47.722;9.388;2023-06-22T14:45:47;30.30;99.90
8662;DHT22;29684;47.722;9.388;2023-06-22T14:48:31;30.10;99.90
8662;DHT22;29684;47.722;9.388;2023-06-22T14:51:16;30.00;99.90
8662;DHT22;29684;47.722;9.388;2023-06-22T14:54:00;30.20;99.90
8662;DHT22;29684;47.722;9.388;2023-06-22T14:56:44;30.40;99.90
8662;DHT22;29684;47.722;9.388;2023-06-22T14:59:28;30.80;99.90
8662;DHT22;29684;47.722;9.388;2023-06-22T15:02:12;31.10;99.90
8662;DHT22;29684;47.722;9.388;2023-06-22T15:04:57;31.10;99.90
8662;DHT22;29684;47.722;9.388;2023-06-22T15:07:41;31.40;99.90
8662;DHT22;29684;47.722;9.388;2023-06-22T15:10:25;31.00;99.90
8662;DHT22;29684;47.722;9.388;2023-06-22T15:13:09;31.10;99.90
8662;DHT22;29684;47.722;9.388;2023-06-22T15:15:53;30.60;99.90
8662;DHT22;29684;47.722;9.388;2023-06-22T15:18:37;30.70;99.90
8662;DHT22;29684;47.722;9.388;2023-06-22T15:21:22;30.90;99.90
8662;DHT22;29684;47.722;9.388;2023-06-22T15:24:06;31.10;99.90
8662;DHT22;29684;47.722;9.388;2023-06-22T15:26:51;31.70;99.90
8662;DHT22;29684;47.722;9.388;2023-06-22T15:29:35;32.00;99.90
8662;DHT22;29684;47.722;9.388;2023-06-22T15:32:20;32.10;99.90
8662;DHT22;29684;47.722;9.388;2023-06-22T15:35:04;31.60;99.90
8662;DHT22;29684;47.722;9.388;2023-06-22T15:37:49;31.50;99.90
8662;DHT22;29684;47.722;9.388;2023-06-22T15:40:33;31.30;99.90
8662;DHT22;29684;47.722;9.388;2023-06-22T15:43:17;30.70;99.90
8662;DHT22;29684;47.722;9.388;2023-06-22T15:46:02;30.70;99.90
8662;DHT22;29684;47.722;9.388;2023-06-22T15:48:46;30.70;99.90
8662;DHT22;29684;47.722;9.388;2023-06-22T15:51:30;30.90;99.90
8662;DHT22;29684;47.722;9.388;2023-06-22T15:54:14;31.00;99.90
8662;DHT22;29684;47.722;9.388;2023-06-22T15:56:58;31.00;99.90
8662;DHT22;29684;47.722;9.388;2023-06-22T15:59:43;31.10;99.90
8662;DHT22;29684;47.722;9.388;2023-06-22T16:02:27;31.20;99.90
8662;DHT22;29684;47.722;9.388;2023-06-22T16:05:12;31.30;99.90
8662;DHT22;29684;47.722;9.388;2023-06-22T16:07:56;31.80;99.90
8662;DHT22;29684;47.722;9.388;2023-06-22T16:10:40;31.40;99.90
8662;DHT22;29684;47.722;9.388;2023-06-22T16:13:24;31.10;99.90
8662;DHT22;29684;47.722;9.388;2023-06-22T16:16:08;31.00;99.90
8662;DHT22;29684;47.722;9.388;2023-06-22T16:18:53;30.80;99.90
8662;DHT22;29684;47.722;9.388;2023-06-22T16:21:37;30.40;99.90
8662;DHT22;29684;47.722;9.388;2023-06-22T16:24:21;30.10;99.90
8662;DHT22;29684;47.722;9.388;2023-06-22T16:27:05;29.30;99.90
8662;DHT22;29684;47.722;9.388;2023-06-22T16:29:50;29.00;99.90
8662;DHT22;29684;47.722;9.388;2023-06-22T16:32:35;28.70;99.90
8662;DHT22;29684;47.722;9.388;2023-06-22T16:35:19;28.40;99.90
8662;DHT22;29684;47.722;9.388;2023-06-22T16:38:07;28.10;99.90
8662;DHT22;29684;47.722;9.388;2023-06-22T16:40:54;28.00;99.90
8662;DHT22;29684;47.722;9.388;2023-06-22T16:43:39;27.80;99.90
8662;DHT22;29684;47.722;9.388;2023-06-22T16:46:23;27.60;99.90
8662;DHT22;29684;47.722;9.388;2023-06-22T16:49:08;27.60;99.90
8662;DHT22;29684;47.722;9.388;2023-06-22T16:51:54;27.50;99.90
8662;DHT22;29684;47.722;9.388;2023-06-22T16:54:42;27.40;99.90
8662;DHT22;29684;47.722;9.388;2023-06-22T16:57:26;27.30;99.90
8662;DHT22;29684;47.722;9.388;2023-06-22T17:00:11;27.20;99.90
8662;DHT22;29684;47.722;9.388;2023-06-22T17:03:00;27.10;99.90
8662;DHT22;29684;47.722;9.388;2023-06-22T17:05:47;27.00;99.90
8662;DHT22;29684;47.722;9.388;2023-06-22T17:08:32;26.80;99.90
8662;DHT22;29684;47.722;9.388;2023-06-22T17:11:18;26.70;99.90
8662;DHT22;29684;47.722;9.388;2023-06-22T17:14:03;26.50;99.90
8662;DHT22;29684;47.722;9.388;2023-06-22T17:16:49;26.40;99.90
8662;DHT22;29684;47.722;9.388;2023-06-22T17:19:34;26.30;99.90
8662;DHT22;29684;47.722;9.388;2023-06-22T17:22:18;26.20;99.90
8662;DHT22;29684;47.722;9.388;2023-06-22T17:25:03;25.70;99.90
8662;DHT22;29684;47.722;9.388;2023-06-22T17:27:48;25.10;99.90
8662;DHT22;29684;47.722;9.388;2023-06-22T17:30:35;24.50;99.90
8662;DHT22;29684;47.722;9.388;2023-06-22T17:33:19;24.00;99.90
8662;DHT22;29684;47.722;9.388;2023-06-22T17:36:12;23.50;99.90
8662;DHT22;29684;47.722;9.388;2023-06-22T17:39:00;23.20;99.90
8662;DHT22;29684;47.722;9.388;2023-06-22T17:41:46;22.90;99.90